Time;durP1;ratioP1;P1;durP2;ratioP2;P2;SDS_P1;SDS_P2;PMS_P1;PMS_P2;Temp;Humidity;BMP_temperature;BMP_pressure;BME280_temperature;BME280_humidity;BME280_pressure;Samples;Min_cycle;Max_cycle;Signal;HPM_P1;HPM_P2
2023/03/05 00:01:57;;;;;;;33.30;15.00;;;;;;;1.05;100.00;97836.57;103977;1304;1003101;-77
2023/03/05 00:04:26;;;;;;;34.70;16.40;;;;;;;1.04;100.00;97856.20;104754;1304;22641;-78
2023/03/05 00:06:56;;;;;;;32.60;16.00;;;;;;;1.03;100.00;97869.90;104390;1304;1003205;-77
2023/03/05 00:09:25;;;;;;;36.60;14.90;;;;;;;1.02;100.00;97875.38;104790;1304;23872;-76
2023/03/05 00:11:56;;;;;;;33.60;15.80;;;;;;;1.01;100.00;97901.94;104615;1304;25335;-75
2023/03/05 00:14:25;;;;;;;32.30;15.80;;;;;;;1.01;100.00;97905.30;104748;1304;25284;-75
2023/03/05 00:16:53;;;;;;;37.30;19.10;;;;;;;0.99;100.00;97913.46;104718;1303;24387;-76
2023/03/05 00:19:24;;;;;;;31.90;13.90;;;;;;;0.95;100.00;97933.52;104836;1303;25358;-75
2023/03/05 00:21:53;;;;;;;29.00;14.70;;;;;;;0.91;100.00;97942.12;104794;1303;25305;-77
2023/03/05 00:24:27;;;;;;;34.00;16.40;;;;;;;0.85;100.00;97946.83;104728;1303;25504;-77
2023/03/05 00:26:56;;;;;;;33.60;16.70;;;;;;;0.81;100.00;97907.42;104739;1304;26162;-76
2023/03/05 00:29:26;;;;;;;31.20;15.60;;;;;;;0.76;100.00;97900.16;104556;1304;26302;-76
2023/03/05 00:31:59;;;;;;;31.40;15.50;;;;;;;0.71;100.00;97910.72;104331;1304;1003133;-77
2023/03/05 00:34:28;;;;;;;31.90;15.70;;;;;;;0.66;100.00;97913.52;103927;1304;1002918;-80
2023/03/05 00:36:59;;;;;;;29.90;14.20;;;;;;;0.62;100.00;97918.58;104548;1304;273317;-77
2023/03/05 00:39:27;;;;;;;30.70;14.30;;;;;;;0.58;100.00;97921.63;104496;1304;26541;-75
2023/03/05 00:41:57;;;;;;;32.70;16.20;;;;;;;0.54;100.00;97911.62;104764;1304;25410;-76
2023/03/05 00:44:26;;;;;;;31.30;15.50;;;;;;;0.49;100.00;97920.95;104367;1304;23938;-76
2023/03/05 00:46:54;;;;;;;32.20;15.90;;;;;;;0.46;100.00;97921.85;104694;1304;25523;-78
2023/03/05 00:49:23;;;;;;;32.80;15.70;;;;;;;0.42;100.00;97923.48;104697;1304;25481;-77
2023/03/05 00:51:52;;;;;;;32.50;15.40;;;;;;;0.39;100.00;97945.21;104661;1304;22551;-76
2023/03/05 00:54:21;;;;;;;33.20;15.30;;;;;;;0.36;100.00;97952.77;104732;1304;25335;-77
2023/03/05 00:56:49;;;;;;;31.70;15.70;;;;;;;0.34;100.00;97959.05;103994;1304;1003451;-77
2023/03/05 00:59:18;;;;;;;34.60;16.20;;;;;;;0.33;100.00;97968.89;104656;1304;24281;-76
2023/03/05 01:01:48;;;;;;;32.90;16.40;;;;;;;0.33;100.00;97968.54;104549;1304;25411;-75
2023/03/05 01:04:18;;;;;;;34.60;15.60;;;;;;;0.33;100.00;97993.16;103693;1304;1015752;-76
2023/03/05 01:06:48;;;;;;;30.90;15.00;;;;;;;0.34;100.00;98026.38;104662;1304;25459;-76
2023/03/05 01:09:18;;;;;;;34.30;16.10;;;;;;;0.37;100.00;98026.28;104740;1304;25441;-76
2023/03/05 01:11:46;;;;;;;31.80;13.20;;;;;;;0.41;100.00;98032.44;104694;1304;24286;-76
2023/03/05 01:14:15;;;;;;;33.20;15.90;;;;;;;0.43;100.00;98045.34;104741;1304;22568;-77
2023/03/05 01:16:44;;;;;;;30.30;13.60;;;;;;;0.43;100.00;98052.43;104820;1303;25530;-76
2023/03/05 01:19:13;;;;;;;27.80;12.20;;;;;;;0.42;100.00;98062.48;104066;1303;1003760;-76
2023/03/05 01:21:41;;;;;;;30.20;15.10;;;;;;;0.41;100.00;98092.72;104614;1303;25334;-77
2023/03/05 01:24:12;;;;;;;29.80;14.10;;;;;;;0.41;100.00;98091.71;104038;1303;1003788;-78
2023/03/05 01:26:40;;;;;;;28.40;13.30;;;;;;;0.39;100.00;98090.45;103747;1304;1002982;-78
2023/03/05 01:29:09;;;;;;;31.50;12.70;;;;;;;0.35;100.00;98090.23;104010;1304;1002995;-78
2023/03/05 01:31:38;;;;;;;32.00;14.20;;;;;;;0.32;100.00;98087.52;104685;1304;26699;-77
2023/03/05 01:34:07;;;;;;;29.40;12.50;;;;;;;0.30;100.00;98075.95;104431;1304;26774;-76
2023/03/05 01:36:40;;;;;;;;;;;;;;;0.25;100.00;98062.39;103977;1304;1003073;-75
2023/03/05 01:39:10;;;;;;;31.60;13.30;;;;;;;0.21;100.00;98050.42;104715;1304;22670;-76
2023/03/05 01:41:38;;;;;;;30.70;13.40;;;;;;;0.15;100.00;98041.27;104437;1304;24292;-76
2023/03/05 01:44:32;;;;;;;26.60;12.60;;;;;;;0.10;100.00;98034.70;104803;1304;26685;-77
2023/03/05 01:47:01;;;;;;;30.60;12.20;;;;;;;0.04;100.00;98020.89;104737;1304;25535;-76
2023/03/05 01:49:32;;;;;;;32.00;14.80;;;;;;;-0.01;100.00;98016.61;104769;1304;26544;-76
2023/03/05 01:52:09;;;;;;;32.90;15.20;;;;;;;-0.06;100.00;98013.07;104062;1304;1003657;-76
2023/03/05 01:54:41;;;;;;;33.70;15.30;;;;;;;-0.11;100.00;98010.31;104730;1304;25397;-75
2023/03/05 01:57:16;;;;;;;31.80;15.00;;;;;;;-0.14;100.00;98006.79;104399;1304;25478;-76
2023/03/05 01:59:46;;;;;;;28.60;12.80;;;;;;;-0.19;100.00;98000.51;104494;1304;22679;-77
2023/03/05 02:02:14;;;;;;;32.70;14.40;;;;;;;-0.23;100.00;97998.22;104730;1304;25436;-74
2023/03/05 02:04:49;;;;;;;28.40;12.50;;;;;;;-0.25;100.00;98000.20;104419;1304;22869;-76
2023/03/05 02:07:18;;;;;;;26.40;12.40;;;;;;;-0.28;100.00;98001.02;104533;1304;22549;-78
2023/03/05 02:09:46;;;;;;;30.40;14.20;;;;;;;-0.31;100.00;98000.66;104713;1304;25389;-76
2023/03/05 02:12:19;;;;;;;31.20;14.50;;;;;;;-0.34;100.00;98002.38;104766;1304;25402;-78
2023/03/05 02:14:49;;;;;;;31.60;13.90;;;;;;;-0.38;100.00;98007.20;104455;1304;23124;-77
2023/03/05 02:17:17;;;;;;;30.10;12.90;;;;;;;-0.41;100.00;98014.22;104849;1303;22572;-76
2023/03/05 02:19:54;;;;;;;32.30;14.00;;;;;;;-0.44;100.00;98019.63;104462;1303;26641;-78
2023/03/05 02:22:23;;;;;;;29.20;12.50;;;;;;;-0.47;100.00;98026.42;104585;1303;25283;-77
2023/03/05 02:24:53;;;;;;;30.80;13.90;;;;;;;-0.49;100.00;98025.95;106690;1303;24271;-75
2023/03/05 02:27:26;;;;;;;33.40;13.80;;;;;;;-0.50;100.00;98026.80;106397;1304;1002275;-76
2023/03/05 02:30:00;;;;;;;30.70;13.60;;;;;;;-0.50;100.00;98035.63;107595;1304;26750;-75
2023/03/05 02:32:31;;;;;;;30.40;13.30;;;;;;;-0.51;100.00;98031.27;106165;1304;23960;-76
2023/03/05 02:34:59;;;;;;;30.70;12.40;;;;;;;-0.52;100.00;98025.88;104764;1304;24918;-76
2023/03/05 02:37:29;;;;;;;25.10;12.20;;;;;;;-0.53;100.00;98026.67;104745;1304;25466;-75
2023/03/05 02:39:58;;;;;;;32.60;14.10;;;;;;;-0.54;100.00;98028.36;104008;1304;1003451;-77
2023/03/05 02:42:32;;;;;;;29.90;13.10;;;;;;;-0.55;100.00;98026.38;104456;1304;25446;-77
2023/03/05 02:45:09;;;;;;;32.10;13.40;;;;;;;-0.57;100.00;98018.79;104780;1304;25274;-76
2023/03/05 02:47:38;;;;;;;27.50;11.70;;;;;;;-0.60;100.00;98015.12;104719;1304;23807;-77
2023/03/05 02:50:08;;;;;;;31.60;13.00;;;;;;;-0.63;100.00;98013.36;104696;1304;25523;-77
2023/03/05 02:52:37;;;;;;;26.20;12.20;;;;;;;-0.65;100.00;98015.16;103731;1304;1002876;-78
2023/03/05 02:55:10;;;;;;;31.80;12.40;;;;;;;-0.68;100.00;98010.96;104002;1304;1002988;-77
2023/03/05 02:57:40;;;;;;;29.20;12.20;;;;;;;-0.69;100.00;98012.50;104008;1304;1002954;-76
2023/03/05 03:00:10;;;;;;;30.20;12.20;;;;;;;-0.69;100.00;98004.53;104486;1305;25277;-76
2023/03/05 03:02:40;;;;;;;23.20;10.80;;;;;;;-0.69;100.00;98001.88;104328;1305;25396;-75
2023/03/05 03:05:09;;;;;;;29.10;12.40;;;;;;;-0.69;100.00;98001.38;104353;1305;22565;-77
2023/03/05 03:07:37;;;;;;;31.10;12.10;;;;;;;-0.67;100.00;97992.55;104468;1305;24331;-76
2023/03/05 03:10:10;;;;;;;28.70;11.40;;;;;;;-0.67;100.00;97991.29;104507;1305;25293;-77
2023/03/05 03:12:40;;;;;;;30.30;11.80;;;;;;;-0.66;100.00;97984.09;103705;1305;1003307;-78
2023/03/05 03:15:10;;;;;;;22.80;8.70;;;;;;;-0.67;100.00;97982.06;104525;1305;22552;-76
2023/03/05 03:17:43;;;;;;;31.70;12.50;;;;;;;-0.69;100.00;97980.96;104613;1304;25330;-77
2023/03/05 03:20:14;;;;;;;26.90;11.60;;;;;;;-0.71;100.00;97977.70;104718;1304;25503;-77
2023/03/05 03:22:43;;;;;;;25.30;10.10;;;;;;;-0.75;100.00;97975.41;103841;1304;1003331;-76
2023/03/05 03:25:19;;;;;;;32.50;12.30;;;;;;;-0.79;100.00;97969.18;104456;1305;22674;-76
2023/03/05 03:27:50;;;;;;;30.90;11.40;;;;;;;-0.80;100.00;97971.45;104537;1305;26714;-77
2023/03/05 03:30:18;;;;;;;24.90;10.90;;;;;;;-0.83;100.00;97965.15;104453;1305;25392;-76
2023/03/05 03:32:47;;;;;;;24.10;10.20;;;;;;;-0.86;100.00;97965.48;104489;1305;25394;-76
2023/03/05 03:35:16;;;;;;;24.00;10.10;;;;;;;-0.89;100.00;97963.85;104464;1305;22556;-77
2023/03/05 03:37:46;;;;;;;31.10;11.70;;;;;;;-0.92;100.00;97958.64;103788;1305;1003011;-79
2023/03/05 03:40:15;;;;;;;27.40;10.20;;;;;;;-0.95;100.00;97957.02;104498;1305;25326;-77
2023/03/05 03:42:43;;;;;;;24.60;9.80;;;;;;;-0.98;100.00;97951.92;104505;1305;24446;-76
2023/03/05 03:45:12;;;;;;;27.40;10.40;;;;;;;-0.98;100.00;97953.24;103768;1305;1003419;-76
2023/03/05 03:47:41;;;;;;;30.80;11.20;;;;;;;-1.00;100.00;97947.77;103778;1305;1002957;-77
2023/03/05 03:50:11;;;;;;;29.10;11.00;;;;;;;-1.02;100.00;97943.73;104488;1305;26615;-78
2023/03/05 03:52:39;;;;;;;25.20;10.00;;;;;;;-1.05;100.00;97934.96;104404;1304;26790;-76
2023/03/05 03:55:09;;;;;;;26.30;10.70;;;;;;;-1.06;100.00;97932.82;104486;1304;25459;-77
2023/03/05 03:57:38;;;;;;;24.80;10.40;;;;;;;-1.07;100.00;97929.86;104487;1305;25398;-77
2023/03/05 04:00:09;;;;;;;22.70;9.70;;;;;;;-1.09;100.00;97928.81;104613;1304;25527;-76
2023/03/05 04:02:40;;;;;;;24.40;9.50;;;;;;;-1.12;100.00;97921.83;104693;1304;26634;-76
2023/03/05 04:05:09;;;;;;;23.90;9.00;;;;;;;-1.14;100.00;97918.83;104761;1304;25499;-76
2023/03/05 04:07:38;;;;;;;27.30;9.40;;;;;;;-1.17;100.00;97910.23;104458;1304;25357;-76
2023/03/05 04:10:09;;;;;;;26.90;10.20;;;;;;;-1.20;100.00;97909.16;104753;1304;26662;-77
2023/03/05 04:12:38;;;;;;;25.20;9.60;;;;;;;-1.23;100.00;97904.69;104767;1304;25413;-77
2023/03/05 04:15:07;;;;;;;25.50;10.90;;;;;;;-1.27;100.00;97903.29;104021;1304;1003198;-76
2023/03/05 04:17:36;;;;;;;24.40;10.00;;;;;;;-1.30;100.00;97898.48;104857;1303;22556;-76
2023/03/05 04:20:07;;;;;;;22.30;9.10;;;;;;;-1.33;100.00;97900.73;104873;1303;25625;-76
2023/03/05 04:22:42;;;;;;;25.50;10.40;;;;;;;-1.36;100.00;97905.04;104118;1303;1015652;-77
2023/03/05 04:25:10;;;;;;;23.30;9.20;;;;;;;-1.37;100.00;97907.84;104074;1303;1003283;-79
2023/03/05 04:27:39;;;;;;;25.90;10.40;;;;;;;-1.38;100.00;97908.98;104765;1304;22552;-76
2023/03/05 04:30:27;;;;;;;21.40;9.00;;;;;;;-1.41;100.00;97915.07;104758;1304;24069;-77
2023/03/05 04:32:59;;;;;;;25.60;10.40;;;;;;;-1.42;100.00;97915.05;103967;1304;1002899;-75
2023/03/05 04:35:28;;;;;;;26.40;10.60;;;;;;;-1.44;100.00;97913.73;104694;1304;25361;-76
2023/03/05 04:37:57;;;;;;;25.00;9.40;;;;;;;-1.44;100.00;97917.34;104781;1304;23020;-77
2023/03/05 04:40:26;;;;;;;25.30;10.40;;;;;;;-1.45;100.00;97923.25;103774;1304;1003575;-76
2023/03/05 04:42:54;;;;;;;24.00;9.20;;;;;;;-1.46;100.00;97922.62;104715;1304;25404;-77
2023/03/05 04:45:23;;;;;;;21.10;9.50;;;;;;;-1.47;100.00;97925.58;104748;1304;25536;-77
2023/03/05 04:47:52;;;;;;;22.00;8.90;;;;;;;-1.48;100.00;97934.12;104756;1304;26688;-76
2023/03/05 04:50:25;;;;;;;24.40;9.70;;;;;;;-1.48;100.00;97938.77;104762;1304;26850;-76
2023/03/05 04:52:53;;;;;;;27.10;10.40;;;;;;;-1.47;100.00;97944.64;104622;1304;25342;-76
2023/03/05 04:55:22;;;;;;;24.80;10.70;;;;;;;-1.45;100.00;97948.92;104730;1304;22559;-76
2023/03/05 04:57:50;;;;;;;26.00;9.90;;;;;;;-1.43;100.00;97948.36;104724;1304;22596;-77
2023/03/05 05:00:19;;;;;;;24.10;8.90;;;;;;;-1.39;100.00;97949.20;104703;1304;26554;-76
2023/03/05 05:02:49;;;;;;;25.60;11.20;;;;;;;-1.33;100.00;97953.01;103954;1304;1003292;-75
2023/03/05 05:05:19;;;;;;;26.70;10.40;;;;;;;-1.23;100.00;97955.27;104636;1304;25507;-77
2023/03/05 05:07:48;;;;;;;22.60;9.10;;;;;;;-1.16;100.00;97970.69;104657;1304;22595;-77
2023/03/05 05:10:16;;;;;;;26.40;10.40;;;;;;;-1.11;100.00;97974.26;103989;1304;1002886;-77
2023/03/05 05:12:45;;;;;;;24.60;9.50;;;;;;;-1.07;100.00;97976.16;104694;1304;24239;-76
2023/03/05 05:15:14;;;;;;;22.90;9.30;;;;;;;-1.02;100.00;97979.23;103965;1304;1002856;-77
2023/03/05 05:17:42;;;;;;;23.60;9.40;;;;;;;-0.97;100.00;97982.41;104655;1303;22619;-77
2023/03/05 05:20:13;;;;;;;21.70;8.90;;;;;;;-0.91;100.00;97984.70;104807;1303;22566;-75
2023/03/05 05:22:42;;;;;;;24.80;10.10;;;;;;;-0.85;100.00;97980.91;104656;1303;24288;-77
2023/03/05 05:25:11;;;;;;;23.70;9.40;;;;;;;-0.80;100.00;97976.77;104785;1303;26680;-78
2023/03/05 05:27:42;;;;;;;24.30;9.80;;;;;;;-0.75;100.00;97977.04;104707;1304;26756;-76
2023/03/05 05:30:11;;;;;;;19.40;7.90;;;;;;;-0.71;100.00;97977.81;104040;1304;1002930;-77
2023/03/05 05:32:40;;;;;;;26.70;11.10;;;;;;;-0.66;100.00;97981.25;104772;1304;24446;-77
2023/03/05 05:35:09;;;;;;;23.20;8.70;;;;;;;-0.61;100.00;97987.48;104733;1304;25348;-76
2023/03/05 05:37:38;;;;;;;24.20;9.90;;;;;;;-0.56;100.00;97985.00;104701;1304;23803;-77
2023/03/05 05:40:08;;;;;;;21.20;8.70;;;;;;;-0.49;100.00;97981.18;104720;1304;25281;-77
2023/03/05 05:42:37;;;;;;;24.20;9.90;;;;;;;-0.43;100.00;97981.14;104389;1304;25444;-77
2023/03/05 05:45:07;;;;;;;22.30;10.10;;;;;;;-0.38;100.00;97982.96;104743;1304;25255;-80
2023/03/05 05:47:35;;;;;;;23.80;9.00;;;;;;;-0.33;100.00;97983.12;104101;1304;1003707;-77
2023/03/05 05:50:09;;;;;;;;;;;;;;;-0.22;100.00;97986.27;104822;1304;25331;-76
2023/03/05 05:52:38;;;;;;;21.30;8.60;;;;;;;-0.12;100.00;97979.61;104756;1304;25287;-78
2023/03/05 05:55:07;;;;;;;21.10;8.70;;;;;;;-0.06;100.00;97972.84;104791;1303;25453;-77
2023/03/05 05:57:36;;;;;;;23.50;9.40;;;;;;;0.02;100.00;97969.02;104913;1304;25392;-77
2023/03/05 06:00:08;;;;;;;25.50;9.40;;;;;;;0.12;100.00;97970.48;104087;1303;1004140;-76
2023/03/05 06:02:41;;;;;;;25.80;10.20;;;;;;;0.21;100.00;97973.66;104908;1303;25453;-75
2023/03/05 06:05:11;;;;;;;19.80;7.90;;;;;;;0.29;100.00;97975.16;104123;1303;1003549;-75
2023/03/05 06:07:40;;;;;;;18.80;7.50;;;;;;;0.35;100.00;97981.62;103833;1304;1003113;-75
2023/03/05 06:10:10;;;;;;;21.10;8.70;;;;;;;0.42;100.00;97991.59;104888;1303;25277;-76
2023/03/05 06:12:38;;;;;;;21.30;7.90;;;;;;;0.48;100.00;97996.78;104129;1303;1002777;-77
2023/03/05 06:15:08;;;;;;;22.50;8.00;;;;;;;0.57;100.00;98008.44;104863;1304;25514;-76
2023/03/05 06:17:36;;;;;;;23.40;9.10;;;;;;;0.65;100.00;98025.17;104712;1304;24396;-77
2023/03/05 06:20:12;;;;;;;19.40;8.10;;;;;;;0.76;100.00;98043.45;103980;1304;1003718;-76
2023/03/05 06:22:40;;;;;;;20.00;8.60;;;;;;;0.83;100.00;98061.02;103983;1304;1004123;-76
2023/03/05 06:25:09;;;;;;;21.40;7.70;;;;;;;0.84;100.00;98082.52;104733;1304;22633;-78
2023/03/05 06:27:39;;;;;;;22.00;7.60;;;;;;;0.84;100.00;98110.11;104713;1304;26540;-77
2023/03/05 06:30:09;;;;;;;23.60;8.30;;;;;;;0.91;100.00;98128.83;104700;1304;25332;-77
2023/03/05 06:32:38;;;;;;;19.50;8.60;;;;;;;1.00;100.00;98150.91;104569;1304;25370;-75
2023/03/05 06:35:08;;;;;;;24.70;9.50;;;;;;;1.09;100.00;98172.26;104637;1304;25450;-78
2023/03/05 06:37:38;;;;;;;20.60;8.20;;;;;;;1.13;100.00;98191.66;104019;1304;1002514;-77
2023/03/05 06:40:08;;;;;;;19.00;8.00;;;;;;;1.19;100.00;98213.48;104798;1304;26547;-78
2023/03/05 06:42:37;;;;;;;24.10;7.80;;;;;;;1.28;100.00;98235.45;104494;1304;26569;-77
2023/03/05 06:45:07;;;;;;;20.50;8.60;;;;;;;1.39;100.00;98247.08;104039;1304;1003739;-76
2023/03/05 06:47:36;;;;;;;19.70;8.20;;;;;;;1.54;100.00;98259.75;104067;1304;1003431;-76
2023/03/05 06:50:05;;;;;;;18.20;8.00;;;;;;;1.63;100.00;98275.95;104752;1304;25341;-76
2023/03/05 06:52:34;;;;;;;12.40;6.30;;;;;;;1.64;100.00;98300.14;104679;1304;25379;-76
2023/03/05 06:55:04;;;;;;;11.90;5.00;;;;;;;1.70;100.00;98327.93;104694;1304;25332;-75
2023/03/05 06:57:35;;;;;;;16.30;5.50;;;;;;;1.80;100.00;98374.27;104807;1304;25293;-76
2023/03/05 07:00:10;;;;;;;17.30;6.50;;;;;;;1.84;100.00;98442.89;104715;1304;22559;-76
2023/03/05 07:02:39;;;;;;;21.40;6.50;;;;;;;1.77;100.00;98521.75;104684;1304;26585;-76
2023/03/05 07:05:09;;;;;;;20.50;6.30;;;;;;;1.70;100.00;98582.54;104680;1304;25379;-76
2023/03/05 07:07:39;;;;;;;13.80;5.50;;;;;;;1.62;100.00;98644.27;104767;1304;25373;-76
2023/03/05 07:10:10;;;;;;;14.10;6.00;;;;;;;1.54;100.00;98699.71;104778;1304;25407;-75
2023/03/05 07:12:43;;;;;;;15.30;6.60;;;;;;;1.51;100.00;98747.38;104655;1304;25449;-76
2023/03/05 07:15:11;;;;;;;10.20;4.90;;;;;;;1.53;100.00;98785.23;105240;1304;1002507;-75
2023/03/05 07:17:40;;;;;;;16.20;6.00;;;;;;;1.60;100.00;98805.85;106099;1304;1003187;-75
2023/03/05 07:20:10;;;;;;;13.60;5.70;;;;;;;1.75;100.00;98821.38;107214;1304;23506;-76
2023/03/05 07:22:39;;;;;;;16.90;6.80;;;;;;;2.01;100.00;98829.91;107825;1304;25647;-75
2023/03/05 07:25:08;;;;;;;13.90;5.70;;;;;;;2.19;100.00;98870.86;106216;1304;25277;-75
2023/03/05 07:27:37;;;;;;;12.60;5.80;;;;;;;2.30;100.00;98913.61;104756;1304;26067;-75
2023/03/05 07:30:06;;;;;;;18.80;6.30;;;;;;;2.49;100.00;98935.08;104000;1304;1005175;-75
2023/03/05 07:32:36;;;;;;;14.40;6.60;;;;;;;2.66;100.00;98979.37;104381;1304;25551;-76
2023/03/05 07:35:06;;;;;;;16.90;5.80;;;;;;;2.80;100.00;99023.27;104009;1304;1003258;-76
2023/03/05 07:37:35;;;;;;;17.40;7.60;;;;;;;2.99;100.00;99048.52;104817;1304;23181;-76
2023/03/05 07:40:05;;;;;;;20.70;7.30;;;;;;;3.26;100.00;99067.08;104757;1304;25584;-75
2023/03/05 07:42:38;;;;;;;19.40;6.90;;;;;;;3.58;100.00;99090.61;104755;1304;25462;-76
2023/03/05 07:45:10;;;;;;;11.40;5.30;;;;;;;3.78;100.00;99123.87;104056;1304;1003740;-77
2023/03/05 07:47:39;;;;;;;15.00;6.00;;;;;;;3.90;100.00;99158.41;104569;1304;24294;-77
2023/03/05 07:50:08;;;;;;;14.00;5.20;;;;;;;4.08;100.00;99167.90;104574;1304;22892;-77
2023/03/05 07:52:37;;;;;;;18.20;6.80;;;;;;;4.20;100.00;99188.47;103906;1304;1002871;-77
2023/03/05 07:55:07;;;;;;;16.50;6.10;;;;;;;4.29;100.00;99202.17;104631;1304;25338;-78
2023/03/05 07:57:37;;;;;;;15.60;7.60;;;;;;;4.43;100.00;99215.14;104437;1304;25339;-76
2023/03/05 08:00:07;;;;;;;16.70;6.00;;;;;;;4.55;100.00;99225.50;103925;1304;1003805;-78
2023/03/05 08:02:39;;;;;;;13.50;6.80;;;;;;;4.60;100.00;99242.23;103979;1304;1003047;-76
2023/03/05 08:05:08;;;;;;;13.10;5.70;;;;;;;4.67;100.00;99236.84;104045;1304;1003328;-77
2023/03/05 08:07:37;;;;;;;14.40;6.30;;;;;;;4.73;100.00;99256.39;104771;1304;22566;-76
2023/03/05 08:10:06;;;;;;;9.00;4.80;;;;;;;4.81;100.00;99272.41;104757;1304;25435;-77
2023/03/05 08:12:40;;;;;;;9.00;4.00;;;;;;;4.86;100.00;99290.31;103949;1304;1003109;-80
2023/03/05 08:15:09;;;;;;;10.10;5.00;;;;;;;4.81;100.00;99301.86;104015;1304;1002859;-77
2023/03/05 08:17:38;;;;;;;10.30;4.70;;;;;;;4.85;100.00;99308.67;104922;1303;22980;-76
2023/03/05 08:20:10;;;;;;;12.40;4.80;;;;;;;4.83;100.00;99304.50;104732;1303;22653;-77
2023/03/05 08:22:39;;;;;;;17.70;8.10;;;;;;;4.82;100.00;99296.39;104643;1303;22565;-75
2023/03/05 08:25:09;;;;;;;20.50;8.10;;;;;;;4.79;100.00;99265.98;104595;1303;26543;-74
2023/03/05 08:27:39;;;;;;;18.30;7.40;;;;;;;4.76;100.00;99251.13;104574;1304;26765;-76
2023/03/05 08:30:10;;;;;;;16.20;7.70;;;;;;;4.68;100.00;99240.34;104530;1304;24316;-76
2023/03/05 08:32:39;;;;;;;14.80;5.70;;;;;;;4.58;100.00;99223.27;104793;1304;22618;-75
2023/03/05 08:35:08;;;;;;;12.20;6.00;;;;;;;4.50;100.00;99214.96;104471;1304;25367;-75
2023/03/05 08:37:44;;;;;;;7.80;4.00;;;;;;;4.49;100.00;99207.89;104469;1304;25541;-75
2023/03/05 08:40:14;;;;;;;7.00;4.00;;;;;;;4.61;100.00;99193.58;104734;1304;22556;-74
2023/03/05 08:42:43;;;;;;;10.70;4.70;;;;;;;4.65;100.00;99107.95;104505;1304;24271;-75
2023/03/05 08:45:12;;;;;;;6.10;3.00;;;;;;;4.79;100.00;99103.71;104713;1304;25498;-75
2023/03/05 08:47:42;;;;;;;7.80;4.80;;;;;;;4.99;100.00;99098.21;104790;1304;25344;-75
2023/03/05 08:50:11;;;;;;;5.80;3.30;;;;;;;5.03;100.00;99108.54;104734;1304;25284;-76
2023/03/05 08:52:41;;;;;;;5.40;2.40;;;;;;;4.95;100.00;99108.30;104698;1304;25296;-75
2023/03/05 08:55:11;;;;;;;3.20;1.80;;;;;;;5.01;100.00;99103.05;104692;1304;22555;-75
2023/03/05 08:57:42;;;;;;;3.60;1.90;;;;;;;5.05;100.00;99100.48;104716;1304;25394;-77
2023/03/05 09:00:12;;;;;;;3.30;2.00;;;;;;;5.17;100.00;99103.70;103756;1305;1003110;-79
2023/03/05 09:02:41;;;;;;;4.30;1.50;;;;;;;5.22;100.00;99110.13;103780;1305;1002986;-79
2023/03/05 09:05:09;;;;;;;8.70;2.50;;;;;;;5.11;100.00;99114.20;104422;1305;25399;-76
2023/03/05 09:07:38;;;;;;;4.60;2.50;;;;;;;5.23;100.00;99117.40;104496;1305;22564;-76
2023/03/05 09:10:10;;;;;;;7.10;3.00;;;;;;;5.38;100.00;99119.26;103769;1305;1003383;-75
2023/03/05 09:12:42;;;;;;;6.90;3.40;;;;;;;5.34;100.00;99126.05;104541;1305;22604;-75
2023/03/05 09:15:12;;;;;;;5.30;3.20;;;;;;;5.29;100.00;99137.73;104534;1304;25305;-76
2023/03/05 09:17:44;;;;;;;3.50;2.20;;;;;;;5.41;100.00;99138.56;104761;1304;23214;-76
2023/03/05 09:20:12;;;;;;;8.90;3.20;;;;;;;5.41;100.00;99142.00;104802;1304;22549;-76
2023/03/05 09:22:43;;;;;;;4.40;2.70;;;;;;;5.49;100.00;99137.55;104684;1304;25351;-74
2023/03/05 09:25:11;;;;;;;10.20;3.70;;;;;;;5.71;100.00;99135.48;104650;1305;25351;-76
2023/03/05 09:27:40;;;;;;;4.10;2.50;;;;;;;5.73;100.00;99145.29;104473;1305;22566;-76
2023/03/05 09:30:10;;;;;;;10.60;3.70;;;;;;;5.62;100.00;99156.95;104521;1305;25297;-76
2023/03/05 09:32:39;;;;;;;11.70;3.90;;;;;;;5.57;100.00;99171.60;104504;1305;24276;-76
2023/03/05 09:35:09;;;;;;;7.70;3.50;;;;;;;5.60;100.00;99171.15;104501;1305;25404;-77
2023/03/05 09:37:38;;;;;;;5.00;3.00;;;;;;;5.55;100.00;99181.81;104495;1305;25304;-76
2023/03/05 09:40:10;;;;;;;8.40;3.30;;;;;;;5.56;100.00;99185.11;104528;1305;22552;-75
2023/03/05 09:43:07;;;;;;;9.00;3.90;;;;;;;5.77;100.00;99182.05;104452;1305;25466;-75
2023/03/05 09:45:39;;;;;;;4.00;2.50;;;;;;;6.03;100.00;99182.42;104465;1304;26638;-76
2023/03/05 09:48:44;;;;;;;4.50;2.30;;;;;;;6.03;100.00;99189.16;104524;1305;26627;-77
2023/03/05 09:51:25;;;;;;;4.40;2.00;;;;;;;6.02;100.00;99187.88;104412;1305;22597;-77
2023/03/05 09:54:18;;;;;;;9.40;3.80;;;;;;;5.99;100.00;99196.61;104516;1305;25300;-76
2023/03/05 09:56:49;;;;;;;12.50;3.70;;;;;;;5.93;100.00;99202.70;104499;1305;22608;-76
2023/03/05 09:59:20;;;;;;;15.10;4.50;;;;;;;6.11;100.00;99207.34;104554;1304;23941;-75
2023/03/05 10:01:49;;;;;;;6.50;2.40;;;;;;;6.43;100.00;99196.77;104754;1304;25423;-77
2023/03/05 10:04:28;;;;;;;8.80;2.50;;;;;;;6.68;100.00;99188.09;104834;1304;25367;-76
2023/03/05 10:07:01;;;;;;;4.60;2.50;;;;;;;6.78;100.00;99182.36;104770;1304;24382;-76
2023/03/05 10:09:42;;;;;;;4.30;2.80;;;;;;;6.70;100.00;99187.79;104007;1304;1003641;-77
2023/03/05 10:12:41;;;;;;;3.50;1.60;;;;;;;6.59;100.00;99187.00;104449;1304;22688;-77
2023/03/05 10:15:14;;;;;;;6.20;2.00;;;;;;;6.70;100.00;99185.56;104736;1304;25322;-78
2023/03/05 10:17:48;;;;;;;3.80;1.70;;;;;;;6.49;100.00;99188.36;104875;1303;22786;-76
2023/03/05 10:20:32;;;;;;;3.10;2.10;;;;;;;6.30;100.00;99187.76;104224;1303;1003457;-76
2023/03/05 10:23:07;;;;;;;4.50;3.00;;;;;;;5.96;100.00;99194.92;104939;1303;25275;-76
2023/03/05 10:26:00;;;;;;;4.80;2.10;;;;;;;6.01;100.00;99190.06;104682;1304;24290;-77
2023/03/05 10:28:48;;;;;;;5.10;2.30;;;;;;;5.96;100.00;99196.15;104788;1304;25379;-76
2023/03/05 10:31:41;;;;;;;5.00;2.90;;;;;;;5.98;100.00;99192.38;104744;1304;24261;-77
2023/03/05 10:34:31;;;;;;;4.00;1.80;;;;;;;6.25;100.00;99189.90;104778;1304;25473;-80
2023/03/05 10:37:13;;;;;;;2.50;1.40;;;;;;;6.42;100.00;99176.65;104787;1304;25487;-78
2023/03/05 10:39:54;;;;;;;3.20;1.00;;;;;;;6.58;100.00;99171.66;104756;1304;25416;-76
2023/03/05 10:42:48;;;;;;;3.20;1.10;;;;;;;6.69;100.00;99160.41;104729;1304;22561;-77
2023/03/05 10:45:34;;;;;;;;;;;;;;;6.76;100.00;99158.97;104533;1304;25498;-76
2023/03/05 10:48:25;;;;;;;1.60;1.20;;;;;;;6.58;100.00;99157.19;104798;1304;25505;-76
2023/03/05 10:51:00;;;;;;;3.70;1.70;;;;;;;6.56;100.00;99155.54;104749;1304;22562;-77
2023/03/05 10:53:34;;;;;;;1.60;1.40;;;;;;;6.67;100.00;99154.04;104103;1295;1002537;-77
2023/03/05 10:56:09;;;;;;;2.40;1.30;;;;;;;6.44;100.00;99157.23;104669;1304;26691;-75
2023/03/05 10:58:38;;;;;;;2.60;1.80;;;;;;;6.13;100.00;99158.80;105082;1304;26520;-76
2023/03/05 11:01:11;;;;;;;4.10;2.40;;;;;;;6.06;100.00;99162.33;104741;1304;22557;-76
2023/03/05 11:04:02;;;;;;;3.50;2.40;;;;;;;6.18;100.00;99157.30;104773;1304;25410;-76
2023/03/05 11:06:32;;;;;;;1.80;1.60;;;;;;;6.28;100.00;99153.83;104826;1304;24266;-78
2023/03/05 11:09:31;;;;;;;1.40;1.30;;;;;;;6.33;100.00;99145.18;104744;1304;25342;-76
2023/03/05 11:12:07;;;;;;;2.30;1.50;;;;;;;6.40;100.00;99146.77;104743;1304;26630;-77
2023/03/05 11:14:38;;;;;;;2.00;1.30;;;;;;;6.49;100.00;99144.39;104674;1304;25262;-77
2023/03/05 11:17:49;;;;;;;3.20;1.60;;;;;;;6.60;100.00;99139.38;104697;1301;25388;-78
2023/03/05 11:20:28;;;;;;;0.80;0.80;;;;;;;6.54;100.00;99141.64;104069;1309;25450;-76
2023/03/05 11:23:19;;;;;;;1.60;0.90;;;;;;;6.31;100.00;99150.77;104591;1304;26556;-79
2023/03/05 11:26:02;;;;;;;0.80;0.80;;;;;;;6.32;100.00;99147.48;104655;1304;25438;-79
2023/03/05 11:28:51;;;;;;;4.00;1.30;;;;;;;6.51;100.00;99142.34;104800;1304;25407;-78
2023/03/05 11:31:25;;;;;;;1.10;1.00;;;;;;;6.62;100.00;99145.84;104787;1304;25322;-76